Time;durP1;ratioP1;P1;durP2;ratioP2;P2;SDS_P1;SDS_P2;PMS_P1;PMS_P2;Temp;Humidity;BMP_temperature;BMP_pressure;BME280_temperature;BME280_humidity;BME280_pressure;Samples;Min_cycle;Max_cycle;Signal;HPM_P1;HPM_P2
2023/08/13 00:01:29;;;;;;;11.23;2.85;;;;;;;;;;5041282;28;20037;-68
2023/08/13 00:03:55;;;;;;;9.10;2.45;;;;;;;;;;5032683;28;20032;-68
2023/08/13 00:06:22;;;;;;;16.02;3.20;;;;;;;;;;5039925;28;20029;-68
2023/08/13 00:08:48;;;;;;;15.18;2.97;;;;;;;;;;5032373;28;20602;-68
2023/08/13 00:11:14;;;;;;;10.40;3.03;;;;;;;;;;5040267;28;21810;-68
2023/08/13 00:13:41;;;;;;;8.65;2.53;;;;;;;;;;5032681;28;20616;-68
2023/08/13 00:16:08;;;;;;;10.73;3.05;;;;;;;;;;5039849;28;20892;-68
2023/08/13 00:18:34;;;;;;;13.02;3.08;;;;;;;;;;5041417;28;20047;-68
2023/08/13 00:21:00;;;;;;;9.73;2.72;;;;;;;;;;5040976;28;20037;-68
2023/08/13 00:23:27;;;;;;;10.15;2.47;;;;;;;;;;5032768;28;20033;-68
2023/08/13 00:25:53;;;;;;;10.82;2.40;;;;;;;;;;5039132;28;20037;-68
2023/08/13 00:28:19;;;;;;;11.07;2.50;;;;;;;;;;5033642;28;20605;-68
2023/08/13 00:30:45;;;;;;;13.68;3.10;;;;;;;;;;5039795;28;20628;-68
2023/08/13 00:33:11;;;;;;;10.98;2.75;;;;;;;;;;5033370;28;20399;-68
2023/08/13 00:35:37;;;;;;;13.02;2.75;;;;;;;;;;5040182;28;20056;-68
2023/08/13 00:38:04;;;;;;;11.60;2.70;;;;;;;;;;5032756;28;20037;-68
2023/08/13 00:40:30;;;;;;;10.55;2.40;;;;;;;;;;5041112;28;20037;-68
2023/08/13 00:42:56;;;;;;;9.70;2.60;;;;;;;;;;5038800;28;20035;-68
2023/08/13 00:45:22;;;;;;;11.10;2.65;;;;;;;;;;5040434;28;20033;-68
2023/08/13 00:47:48;;;;;;;10.27;2.40;;;;;;;;;;5033330;28;20029;-68
2023/08/13 00:50:14;;;;;;;10.18;2.67;;;;;;;;;;5040214;28;20025;-68
2023/08/13 00:52:40;;;;;;;10.88;2.22;;;;;;;;;;5040050;28;20463;-68
2023/08/13 00:55:07;;;;;;;12.27;3.13;;;;;;;;;;5040310;28;20045;-68
2023/08/13 00:57:34;;;;;;;9.88;2.47;;;;;;;;;;5039480;28;20041;-68
2023/08/13 01:00:00;;;;;;;8.27;2.20;;;;;;;;;;5040116;28;20025;-68
2023/08/13 01:02:28;;;;;;;10.07;2.40;;;;;;;;;;5040242;28;20060;-68
2023/08/13 01:04:55;;;;;;;11.00;2.72;;;;;;;;;;5039933;28;21624;-68
2023/08/13 01:07:27;;;;;;;11.60;2.63;;;;;;;;;;5037652;28;21792;-68
2023/08/13 01:10:13;;;;;;;13.48;2.78;;;;;;;;;;5039436;28;20028;-68
2023/08/13 01:12:46;;;;;;;11.07;2.67;;;;;;;;;;5038218;28;21007;-68
2023/08/13 01:15:27;;;;;;;9.15;2.95;;;;;;;;;;5039755;28;20060;-68
2023/08/13 01:17:53;;;;;;;11.38;3.38;;;;;;;;;;5039025;28;20041;-68
2023/08/13 01:20:24;;;;;;;11.23;2.70;;;;;;;;;;5039957;28;20036;-68
2023/08/13 01:22:50;;;;;;;15.55;3.15;;;;;;;;;;5031395;28;20033;-68
2023/08/13 01:25:18;;;;;;;12.93;3.58;;;;;;;;;;5038786;28;20127;-68
2023/08/13 01:27:56;;;;;;;11.20;2.88;;;;;;;;;;5032733;28;20487;-68
2023/08/13 01:30:29;;;;;;;12.90;3.10;;;;;;;;;;5032749;28;20196;-69
2023/08/13 01:33:01;;;;;;;9.10;2.40;;;;;;;;;;5032663;28;20559;-68
2023/08/13 01:35:27;;;;;;;16.40;3.50;;;;;;;;;;5020852;28;20142;-68
2023/08/13 01:37:54;;;;;;;15.32;3.33;;;;;;;;;;5029930;28;20037;-68
2023/08/13 01:40:21;;;;;;;10.77;3.65;;;;;;;;;;5039284;28;20037;-68
2023/08/13 01:42:47;;;;;;;9.15;2.90;;;;;;;;;;5032028;28;20037;-68
2023/08/13 01:45:13;;;;;;;10.05;2.40;;;;;;;;;;5032538;28;20171;-68
2023/08/13 01:47:39;;;;;;;17.25;3.33;;;;;;;;;;5032143;28;20036;-68
2023/08/13 01:50:06;;;;;;;13.13;3.22;;;;;;;;;;5038330;28;20566;-68
2023/08/13 01:52:32;;;;;;;13.20;3.53;;;;;;;;;;5033593;28;20797;-68
2023/08/13 01:54:58;;;;;;;11.05;2.75;;;;;;;;;;5035642;28;20043;-68
2023/08/13 01:57:24;;;;;;;13.52;2.83;;;;;;;;;;5039299;28;20040;-68
2023/08/13 01:59:50;;;;;;;10.80;3.00;;;;;;;;;;5031313;28;20033;-68
2023/08/13 02:02:16;;;;;;;13.32;3.03;;;;;;;;;;5039183;28;20768;-68
2023/08/13 02:04:42;;;;;;;13.07;3.35;;;;;;;;;;5031164;28;20044;-68
2023/08/13 02:07:08;;;;;;;14.02;3.22;;;;;;;;;;5036059;28;20031;-68
2023/08/13 02:09:34;;;;;;;14.00;3.72;;;;;;;;;;5033476;28;20055;-68
2023/08/13 02:12:00;;;;;;;13.93;3.08;;;;;;;;;;5034444;28;20056;-68
2023/08/13 02:14:27;;;;;;;11.85;2.85;;;;;;;;;;5032572;28;20025;-68
2023/08/13 02:16:53;;;;;;;12.35;3.53;;;;;;;;;;5036321;28;20037;-68
2023/08/13 02:19:19;;;;;;;11.82;2.90;;;;;;;;;;5032203;28;20064;-68
2023/08/13 02:21:45;;;;;;;13.13;3.38;;;;;;;;;;5037290;28;20044;-68
2023/08/13 02:24:12;;;;;;;10.57;3.17;;;;;;;;;;5039049;28;20029;-68
2023/08/13 02:26:38;;;;;;;11.27;3.00;;;;;;;;;;5038463;28;21414;-68
2023/08/13 02:29:04;;;;;;;14.85;3.38;;;;;;;;;;5030710;28;20946;-68
2023/08/13 02:31:30;;;;;;;11.60;3.05;;;;;;;;;;5038839;28;20930;-68
2023/08/13 02:33:56;;;;;;;14.68;3.35;;;;;;;;;;5031067;28;20391;-68
2023/08/13 02:36:22;;;;;;;19.48;3.63;;;;;;;;;;5038575;28;20043;-68
2023/08/13 02:38:48;;;;;;;11.48;2.95;;;;;;;;;;5037815;28;20668;-68
2023/08/13 02:41:14;;;;;;;10.77;3.10;;;;;;;;;;5036865;28;21842;-68
2023/08/13 02:43:53;;;;;;;13.38;3.00;;;;;;;;;;5020652;28;21190;-68
2023/08/13 02:46:23;;;;;;;10.77;2.88;;;;;;;;;;5037805;28;20035;-68
2023/08/13 02:48:53;;;;;;;13.50;3.05;;;;;;;;;;5031261;28;20628;-68
2023/08/13 02:51:20;;;;;;;12.68;2.78;;;;;;;;;;5037196;28;20064;-68
2023/08/13 02:53:46;;;;;;;11.73;2.83;;;;;;;;;;5019887;28;20171;-68
2023/08/13 02:56:12;;;;;;;12.52;3.35;;;;;;;;;;5037644;28;20098;-68
2023/08/13 02:58:38;;;;;;;13.18;3.50;;;;;;;;;;5030733;28;20040;-68
2023/08/13 03:01:04;;;;;;;16.25;3.55;;;;;;;;;;5037659;28;20021;-68
2023/08/13 03:03:31;;;;;;;10.90;3.30;;;;;;;;;;5030340;28;20085;-68
2023/08/13 03:05:57;;;;;;;13.43;3.30;;;;;;;;;;5038309;28;20116;-68
2023/08/13 03:08:23;;;;;;;14.15;4.03;;;;;;;;;;5037496;28;20021;-68
2023/08/13 03:10:49;;;;;;;15.85;3.63;;;;;;;;;;5038102;28;20041;-68
2023/08/13 03:13:15;;;;;;;14.82;3.70;;;;;;;;;;5038244;28;20028;-68
2023/08/13 03:15:42;;;;;;;12.77;3.38;;;;;;;;;;5037680;28;20079;-68
2023/08/13 03:18:08;;;;;;;16.33;3.22;;;;;;;;;;5037676;28;20055;-68
2023/08/13 03:20:34;;;;;;;11.18;3.17;;;;;;;;;;5037639;28;20033;-68
2023/08/13 03:23:00;;;;;;;15.38;3.63;;;;;;;;;;5041511;28;20046;-68
2023/08/13 03:25:26;;;;;;;10.85;3.28;;;;;;;;;;5024019;28;20083;-68
2023/08/13 03:27:52;;;;;;;15.55;3.22;;;;;;;;;;5041389;28;20112;-68
2023/08/13 03:30:18;;;;;;;11.88;3.22;;;;;;;;;;5042130;28;20107;-68
2023/08/13 03:32:47;;;;;;;14.55;3.33;;;;;;;;;;5041647;28;20072;-68
2023/08/13 03:35:13;;;;;;;11.27;2.83;;;;;;;;;;5042393;28;20040;-68
2023/08/13 03:37:39;;;;;;;15.98;3.33;;;;;;;;;;5040042;28;20159;-68
2023/08/13 03:40:05;;;;;;;11.98;3.40;;;;;;;;;;5041882;28;20166;-68
2023/08/13 03:42:31;;;;;;;10.40;2.83;;;;;;;;;;5041843;28;20407;-68
2023/08/13 03:44:58;;;;;;;12.25;3.22;;;;;;;;;;5041801;28;20654;-68
2023/08/13 03:47:24;;;;;;;17.90;3.65;;;;;;;;;;5041952;28;20732;-68
2023/08/13 03:49:50;;;;;;;12.95;2.80;;;;;;;;;;5040787;28;20033;-68
2023/08/13 03:52:16;;;;;;;15.18;3.83;;;;;;;;;;5041701;28;20379;-68
2023/08/13 03:54:42;;;;;;;10.43;2.75;;;;;;;;;;5040223;28;20472;-68
2023/08/13 03:57:08;;;;;;;11.48;3.33;;;;;;;;;;5041902;28;20063;-68
2023/08/13 03:59:34;;;;;;;10.85;3.03;;;;;;;;;;5041119;28;20033;-68
2023/08/13 04:02:01;;;;;;;12.23;2.53;;;;;;;;;;5041441;28;20395;-68
2023/08/13 04:04:27;;;;;;;13.02;3.50;;;;;;;;;;5040312;28;20034;-68
2023/08/13 04:06:53;;;;;;;18.25;3.85;;;;;;;;;;5040925;28;20058;-68
2023/08/13 04:09:19;;;;;;;14.55;3.08;;;;;;;;;;5040886;28;20028;-68
2023/08/13 04:11:45;;;;;;;11.18;3.33;;;;;;;;;;5040284;28;20049;-68
2023/08/13 04:14:14;;;;;;;15.77;3.28;;;;;;;;;;5032931;28;20032;-68
2023/08/13 04:16:43;;;;;;;12.00;3.42;;;;;;;;;;5040363;28;20032;-68
2023/08/13 04:19:09;;;;;;;11.43;3.83;;;;;;;;;;5039918;28;20033;-68
2023/08/13 04:21:35;;;;;;;14.90;3.88;;;;;;;;;;5039623;28;20147;-68
2023/08/13 04:24:01;;;;;;;14.15;3.47;;;;;;;;;;5038692;28;20968;-68
2023/08/13 04:26:27;;;;;;;14.70;3.72;;;;;;;;;;5039565;28;20044;-68
2023/08/13 04:28:53;;;;;;;18.58;4.20;;;;;;;;;;5040704;28;20020;-68
2023/08/13 04:31:20;;;;;;;16.17;3.35;;;;;;;;;;5040962;28;20029;-68
2023/08/13 04:33:49;;;;;;;12.57;3.22;;;;;;;;;;5038728;28;20120;-68
2023/08/13 04:36:15;;;;;;;13.25;3.33;;;;;;;;;;5040106;28;20380;-68
2023/08/13 04:38:41;;;;;;;13.95;3.80;;;;;;;;;;5041080;28;20584;-68
2023/08/13 04:41:08;;;;;;;11.15;3.63;;;;;;;;;;5039708;28;20512;-68
2023/08/13 04:43:34;;;;;;;12.48;2.90;;;;;;;;;;5033217;28;20059;-68
2023/08/13 04:46:00;;;;;;;13.02;3.20;;;;;;;;;;5040128;28;20052;-68
2023/08/13 04:48:42;;;;;;;10.63;2.92;;;;;;;;;;5033344;28;20812;-68
2023/08/13 04:51:09;;;;;;;15.10;3.27;;;;;;;;;;5040194;28;20925;-68
2023/08/13 04:53:35;;;;;;;14.10;3.45;;;;;;;;;;5033090;28;20036;-68
2023/08/13 04:56:01;;;;;;;12.20;3.25;;;;;;;;;;5039284;28;20071;-68
2023/08/13 04:58:27;;;;;;;14.48;3.50;;;;;;;;;;5033513;28;20525;-68
2023/08/13 05:00:53;;;;;;;11.63;3.67;;;;;;;;;;5040801;28;20095;-68
2023/08/13 05:03:19;;;;;;;14.27;3.60;;;;;;;;;;5038578;28;20673;-68
2023/08/13 05:05:45;;;;;;;13.80;3.45;;;;;;;;;;5039473;28;20778;-68
2023/08/13 05:08:11;;;;;;;13.60;4.32;;;;;;;;;;5024357;28;20073;-68
2023/08/13 05:10:37;;;;;;;17.90;3.75;;;;;;;;;;5039785;28;20044;-68
2023/08/13 05:13:04;;;;;;;13.63;3.03;;;;;;;;;;5030401;28;20028;-68
2023/08/13 05:15:30;;;;;;;15.70;3.55;;;;;;;;;;5034147;28;20491;-67
2023/08/13 05:17:59;;;;;;;20.27;3.90;;;;;;;;;;5031740;28;20491;-68
2023/08/13 05:20:25;;;;;;;13.50;3.42;;;;;;;;;;5034855;28;20119;-68
2023/08/13 05:22:52;;;;;;;14.40;2.97;;;;;;;;;;5039211;28;20037;-68
2023/08/13 05:25:18;;;;;;;13.35;3.55;;;;;;;;;;5033791;28;20445;-68
2023/08/13 05:27:47;;;;;;;16.05;3.05;;;;;;;;;;5039584;28;20021;-68
2023/08/13 05:30:13;;;;;;;13.02;4.40;;;;;;;;;;5040436;28;20040;-68
2023/08/13 05:32:39;;;;;;;14.25;3.65;;;;;;;;;;5039254;28;20050;-67
2023/08/13 05:35:08;;;;;;;14.43;3.10;;;;;;;;;;5032974;28;20040;-68
2023/08/13 05:37:34;;;;;;;14.52;3.90;;;;;;;;;;5040396;28;20475;-68
2023/08/13 05:40:01;;;;;;;12.50;3.25;;;;;;;;;;5031639;28;20664;-68
2023/08/13 05:42:27;;;;;;;14.48;3.58;;;;;;;;;;5039516;28;21726;-68
2023/08/13 05:44:53;;;;;;;16.85;4.00;;;;;;;;;;5031652;28;20868;-68
2023/08/13 05:47:19;;;;;;;17.60;3.60;;;;;;;;;;5035147;28;20030;-68
2023/08/13 05:49:45;;;;;;;14.50;3.42;;;;;;;;;;5028806;28;20044;-67
2023/08/13 05:52:14;;;;;;;13.57;3.00;;;;;;;;;;5036298;28;20395;-68
2023/08/13 05:54:40;;;;;;;14.50;4.13;;;;;;;;;;5028778;28;20977;-68
2023/08/13 05:57:06;;;;;;;12.20;3.90;;;;;;;;;;5036710;28;20033;-68
2023/08/13 05:59:33;;;;;;;11.73;3.40;;;;;;;;;;5033945;28;20047;-68
2023/08/13 06:02:01;;;;;;;12.65;4.00;;;;;;;;;;5039312;28;20111;-68
2023/08/13 06:04:27;;;;;;;12.60;3.15;;;;;;;;;;5039227;28;20021;-68
2023/08/13 06:06:53;;;;;;;11.18;3.15;;;;;;;;;;5038264;28;20036;-67
2023/08/13 06:09:19;;;;;;;13.48;3.63;;;;;;;;;;5033009;28;20032;-67
2023/08/13 06:11:45;;;;;;;13.45;3.95;;;;;;;;;;5038809;28;20056;-68
2023/08/13 06:14:11;;;;;;;12.63;3.42;;;;;;;;;;5030606;28;20511;-68
2023/08/13 06:16:37;;;;;;;11.43;3.15;;;;;;;;;;5039210;28;20033;-68
2023/08/13 06:19:03;;;;;;;18.08;4.15;;;;;;;;;;5039018;28;20032;-68
2023/08/13 06:21:30;;;;;;;14.88;3.83;;;;;;;;;;5038171;28;20048;-68
2023/08/13 06:23:56;;;;;;;11.32;3.72;;;;;;;;;;5030982;28;20033;-68
2023/08/13 06:26:22;;;;;;;11.20;3.42;;;;;;;;;;5038158;28;20143;-68
2023/08/13 06:28:48;;;;;;;10.98;3.72;;;;;;;;;;5029924;28;20479;-68
2023/08/13 06:31:14;;;;;;;9.90;3.72;;;;;;;;;;5037559;28;20272;-68
2023/08/13 06:33:40;;;;;;;12.40;4.18;;;;;;;;;;5030205;28;20033;-68
2023/08/13 06:36:09;;;;;;;14.43;3.90;;;;;;;;;;5038602;28;20557;-68
2023/08/13 06:38:36;;;;;;;17.27;4.10;;;;;;;;;;5032801;28;20033;-68
2023/08/13 06:41:08;;;;;;;10.07;3.58;;;;;;;;;;5037377;28;20036;-68
2023/08/13 06:43:34;;;;;;;16.15;4.78;;;;;;;;;;5030232;28;20166;-68
2023/08/13 06:46:01;;;;;;;13.15;4.00;;;;;;;;;;5037170;28;20491;-68
2023/08/13 06:48:27;;;;;;;11.95;3.65;;;;;;;;;;5030742;28;20036;-68
2023/08/13 06:50:57;;;;;;;11.82;3.80;;;;;;;;;;5038750;28;20032;-68
2023/08/13 06:53:24;;;;;;;10.82;3.55;;;;;;;;;;5037800;28;20431;-68
2023/08/13 06:55:50;;;;;;;12.32;4.03;;;;;;;;;;5037008;28;20674;-68
2023/08/13 06:58:17;;;;;;;13.77;3.70;;;;;;;;;;5030645;28;20037;-68
2023/08/13 07:00:43;;;;;;;11.00;3.45;;;;;;;;;;5038646;28;20039;-68
2023/08/13 07:03:11;;;;;;;13.18;3.42;;;;;;;;;;5035284;28;20036;-68
2023/08/13 07:05:39;;;;;;;14.77;3.67;;;;;;;;;;5033914;28;20035;-68
2023/08/13 07:08:06;;;;;;;14.27;3.70;;;;;;;;;;5028717;28;20500;-68
2023/08/13 07:10:32;;;;;;;14.38;3.65;;;;;;;;;;5032758;28;20063;-68
2023/08/13 07:12:58;;;;;;;14.02;4.13;;;;;;;;;;5029351;28;20017;-68
2023/08/13 07:15:25;;;;;;;10.93;3.67;;;;;;;;;;5032391;28;20028;-68
2023/08/13 07:17:51;;;;;;;17.50;4.47;;;;;;;;;;5030764;28;20032;-68
2023/08/13 07:20:17;;;;;;;14.15;3.40;;;;;;;;;;5031602;28;20044;-68
2023/08/13 07:22:43;;;;;;;14.48;4.32;;;;;;;;;;5037693;28;20040;-68
2023/08/13 07:25:11;;;;;;;13.82;3.80;;;;;;;;;;5031247;28;20136;-68
2023/08/13 07:27:37;;;;;;;11.15;3.53;;;;;;;;;;5038839;28;20056;-68
2023/08/13 07:30:04;;;;;;;14.10;3.80;;;;;;;;;;5037710;28;20096;-68
2023/08/13 07:32:30;;;;;;;12.70;4.55;;;;;;;;;;5038500;28;21973;-68
2023/08/13 07:34:56;;;;;;;18.25;4.47;;;;;;;;;;5030883;28;20037;-68
2023/08/13 07:37:22;;;;;;;12.65;3.85;;;;;;;;;;5038119;28;20111;-68
2023/08/13 07:39:48;;;;;;;15.48;4.25;;;;;;;;;;5021193;28;20380;-68
2023/08/13 07:42:14;;;;;;;10.98;3.10;;;;;;;;;;5038307;28;20062;-68
2023/08/13 07:44:40;;;;;;;9.65;3.28;;;;;;;;;;5036714;28;20039;-68
2023/08/13 07:47:06;;;;;;;12.07;3.83;;;;;;;;;;5037341;28;20079;-68
2023/08/13 07:49:32;;;;;;;10.10;3.22;;;;;;;;;;5031089;28;20025;-68
2023/08/13 07:51:59;;;;;;;10.75;2.90;;;;;;;;;;5037219;28;20110;-68
2023/08/13 07:54:26;;;;;;;10.98;3.20;;;;;;;;;;5037565;28;20072;-68
2023/08/13 07:56:52;;;;;;;13.20;3.85;;;;;;;;;;5037597;28;20542;-68
2023/08/13 07:59:19;;;;;;;12.15;4.15;;;;;;;;;;5036311;28;20159;-68
2023/08/13 08:01:45;;;;;;;12.13;2.78;;;;;;;;;;5037494;28;20037;-68
2023/08/13 08:04:11;;;;;;;14.10;3.72;;;;;;;;;;5037007;28;20593;-68
2023/08/13 08:06:37;;;;;;;11.15;3.25;;;;;;;;;;5037723;28;20055;-68
2023/08/13 08:09:05;;;;;;;11.73;2.88;;;;;;;;;;5040987;28;20024;-68
2023/08/13 08:11:31;;;;;;;9.73;3.10;;;;;;;;;;5040670;28;20040;-68
2023/08/13 08:13:57;;;;;;;12.10;3.30;;;;;;;;;;5041893;28;20036;-68
2023/08/13 08:16:23;;;;;;;11.75;3.22;;;;;;;;;;5041739;28;20040;-68
2023/08/13 08:18:50;;;;;;;11.52;2.80;;;;;;;;;;5040886;28;20045;-68
2023/08/13 08:21:16;;;;;;;11.02;3.63;;;;;;;;;;5041268;28;20032;-68
2023/08/13 08:23:42;;;;;;;11.80;3.10;;;;;;;;;;5041465;28;20053;-68
2023/08/13 08:26:09;;;;;;;11.75;3.15;;;;;;;;;;5040517;28;20033;-68
2023/08/13 08:28:35;;;;;;;9.45;2.63;;;;;;;;;;5039419;28;20249;-68
2023/08/13 08:31:01;;;;;;;9.90;2.83;;;;;;;;;;5040398;28;20125;-68
2023/08/13 08:33:27;;;;;;;9.57;2.60;;;;;;;;;;5039977;28;20037;-68
2023/08/13 08:35:53;;;;;;;14.77;3.08;;;;;;;;;;5039376;28;20033;-69
2023/08/13 08:38:19;;;;;;;12.52;3.78;;;;;;;;;;5040062;28;20098;-68
2023/08/13 08:40:47;;;;;;;16.92;3.78;;;;;;;;;;5040799;28;20544;-68
2023/08/13 08:43:14;;;;;;;9.68;2.58;;;;;;;;;;5032565;28;20025;-68
2023/08/13 08:45:40;;;;;;;14.43;3.08;;;;;;;;;;5040817;28;20028;-68
2023/08/13 08:48:07;;;;;;;13.25;3.28;;;;;;;;;;5041109;28;20029;-68
2023/08/13 08:50:34;;;;;;;11.50;2.75;;;;;;;;;;5040552;28;20029;-70
2023/08/13 08:53:00;;;;;;;11.70;3.05;;;;;;;;;;5040567;28;20028;-68
2023/08/13 08:55:26;;;;;;;8.30;2.47;;;;;;;;;;5040231;28;20090;-69
2023/08/13 08:57:54;;;;;;;7.97;2.50;;;;;;;;;;5039682;28;20029;-69
2023/08/13 09:00:20;;;;;;;8.20;2.13;;;;;;;;;;5034610;28;20033;-69
2023/08/13 09:02:47;;;;;;;10.80;2.90;;;;;;;;;;5040716;28;20218;-68
2023/08/13 09:05:13;;;;;;;9.48;2.65;;;;;;;;;;5040298;28;20029;-68
2023/08/13 09:07:42;;;;;;;9.35;2.95;;;;;;;;;;5040066;28;20059;-68
2023/08/13 09:10:08;;;;;;;15.93;3.00;;;;;;;;;;5040230;28;20068;-69
2023/08/13 09:12:35;;;;;;;7.22;2.38;;;;;;;;;;5040153;28;20036;-69
2023/08/13 09:15:05;;;;;;;9.95;2.13;;;;;;;;;;5040593;28;20036;-69
2023/08/13 09:17:31;;;;;;;10.27;2.05;;;;;;;;;;5040207;28;20072;-69
2023/08/13 09:19:57;;;;;;;10.88;2.75;;;;;;;;;;5039316;28;20033;-69
2023/08/13 09:22:23;;;;;;;12.10;2.88;;;;;;;;;;5040011;28;20159;-68
2023/08/13 09:24:50;;;;;;;6.30;1.75;;;;;;;;;;5039492;28;20466;-69
2023/08/13 09:27:17;;;;;;;10.85;2.30;;;;;;;;;;5040252;28;20029;-69
2023/08/13 09:29:43;;;;;;;11.15;2.67;;;;;;;;;;5038471;28;20024;-69
2023/08/13 09:32:09;;;;;;;10.00;1.98;;;;;;;;;;5039129;28;20029;-69
2023/08/13 09:34:35;;;;;;;8.85;2.20;;;;;;;;;;5039716;28;20651;-69
2023/08/13 09:37:02;;;;;;;8.48;1.67;;;;;;;;;;5039383;28;20139;-69
2023/08/13 09:39:28;;;;;;;10.18;2.03;;;;;;;;;;5039825;28;20046;-69
2023/08/13 09:41:55;;;;;;;7.47;1.92;;;;;;;;;;5039668;28;20035;-69
2023/08/13 09:44:24;;;;;;;7.15;1.80;;;;;;;;;;5032087;28;20224;-69
2023/08/13 09:47:02;;;;;;;10.73;2.03;;;;;;;;;;5038578;28;20124;-69
2023/08/13 09:49:31;;;;;;;7.18;1.67;;;;;;;;;;5038805;28;20112;-69
2023/08/13 09:52:01;;;;;;;9.80;2.25;;;;;;;;;;5039469;28;20024;-69
2023/08/13 09:54:30;;;;;;;10.20;1.70;;;;;;;;;;5038862;28;20033;-69
2023/08/13 09:56:59;;;;;;;11.15;2.45;;;;;;;;;;5038772;28;20144;-69
2023/08/13 09:59:25;;;;;;;7.97;2.30;;;;;;;;;;5031021;28;20033;-69
2023/08/13 10:01:51;;;;;;;6.35;1.70;;;;;;;;;;5038671;28;20024;-69
2023/08/13 10:04:18;;;;;;;6.07;1.20;;;;;;;;;;5039345;28;20032;-69
2023/08/13 10:06:46;;;;;;;9.38;1.48;;;;;;;;;;5038626;28;20044;-69
2023/08/13 10:09:13;;;;;;;6.90;1.67;;;;;;;;;;5032259;28;20223;-69
2023/08/13 10:11:39;;;;;;;7.38;1.65;;;;;;;;;;5038417;28;20122;-69
2023/08/13 10:14:05;;;;;;;9.82;1.77;;;;;;;;;;5029651;28;20045;-69
2023/08/13 10:16:34;;;;;;;7.60;1.70;;;;;;;;;;5033831;28;20078;-69
2023/08/13 10:19:01;;;;;;;7.85;1.48;;;;;;;;;;5031369;28;20044;-69
2023/08/13 10:21:36;;;;;;;8.57;2.35;;;;;;;;;;5038989;28;20077;-69
2023/08/13 10:24:12;;;;;;;6.20;1.38;;;;;;;;;;5031493;28;20045;-68
2023/08/13 10:26:41;;;;;;;5.80;1.60;;;;;;;;;;5038774;28;20045;-69
2023/08/13 10:29:17;;;;;;;7.40;2.00;;;;;;;;;;5031320;28;20029;-69
2023/08/13 10:31:54;;;;;;;9.20;2.35;;;;;;;;;;5038868;28;20036;-69
2023/08/13 10:34:20;;;;;;;5.82;1.40;;;;;;;;;;5037213;28;20098;-69
2023/08/13 10:36:53;;;;;;;6.35;1.88;;;;;;;;;;5037383;28;20036;-69
2023/08/13 10:39:33;;;;;;;7.65;1.77;;;;;;;;;;5037304;28;20032;-69
2023/08/13 10:41:59;;;;;;;5.22;1.40;;;;;;;;;;5037508;28;20056;-69
2023/08/13 10:44:29;;;;;;;6.28;1.80;;;;;;;;;;5036793;28;20090;-69
2023/08/13 10:46:55;;;;;;;6.60;1.40;;;;;;;;;;5038481;28;20048;-69
2023/08/13 10:49:22;;;;;;;6.22;1.77;;;;;;;;;;5038403;28;20062;-69
2023/08/13 10:51:51;;;;;;;7.75;1.48;;;;;;;;;;5038185;28;20592;-69
2023/08/13 10:54:20;;;;;;;6.95;1.83;;;;;;;;;;5030947;28;20048;-69
2023/08/13 10:56:53;;;;;;;6.68;2.03;;;;;;;;;;5038493;28;20060;-69
2023/08/13 10:59:19;;;;;;;;;;;;;;;;;;5032556;28;20090;-69
2023/08/13 11:02:04;;;;;;;5.88;1.77;;;;;;;;;;5038396;28;20014;-64
2023/08/13 11:04:31;;;;;;;5.38;1.30;;;;;;;;;;5038178;28;20066;-64
2023/08/13 11:06:58;;;;;;;6.72;1.80;;;;;;;;;;5039241;28;20032;-64
2023/08/13 11:09:25;;;;;;;6.07;1.33;;;;;;;;;;5031188;28;21742;-64
2023/08/13 11:11:51;;;;;;;10.55;2.47;;;;;;;;;;5038712;28;20049;-64
2023/08/13 11:14:17;;;;;;;5.95;1.48;;;;;;;;;;5034399;28;20567;-64
2023/08/13 11:16:43;;;;;;;6.75;1.67;;;;;;;;;;5034778;28;20041;-64
2023/08/13 11:19:09;;;;;;;7.50;1.83;;;;;;;;;;5036208;28;20122;-64
2023/08/13 11:21:35;;;;;;;5.07;1.05;;;;;;;;;;5033403;28;20040;-64
2023/08/13 11:24:02;;;;;;;6.07;1.50;;;;;;;;;;5036027;28;20037;-64
2023/08/13 11:26:29;;;;;;;5.85;1.30;;;;;;;;;;5033232;28;20039;-64
2023/08/13 11:28:57;;;;;;;8.55;1.63;;;;;;;;;;5030467;28;20555;-64
2023/08/13 11:31:23;;;;;;;7.65;1.83;;;;;;;;;;5032320;28;20033;-64
2023/08/13 11:33:50;;;;;;;5.80;1.63;;;;;;;;;;5030550;28;20756;-64
2023/08/13 11:36:16;;;;;;;6.07;1.52;;;;;;;;;;5032006;28;20856;-64
2023/08/13 11:38:42;;;;;;;7.50;1.60;;;;;;;;;;5037761;28;20036;-64
2023/08/13 11:41:14;;;;;;;4.28;1.38;;;;;;;;;;5030597;28;20154;-64
2023/08/13 11:43:40;;;;;;;5.43;1.40;;;;;;;;;;5041141;28;20146;-64
2023/08/13 11:46:06;;;;;;;7.28;1.50;;;;;;;;;;5034921;28;20061;-63
2023/08/13 11:48:36;;;;;;;4.68;1.60;;;;;;;;;;5042584;28;20028;-64
2023/08/13 11:51:15;;;;;;;5.60;1.60;;;;;;;;;;5033887;28;20060;-64
2023/08/13 11:53:44;;;;;;;5.55;1.60;;;;;;;;;;5035461;28;20131;-64
2023/08/13 11:56:14;;;;;;;6.95;1.60;;;;;;;;;;5033476;28;20086;-64
2023/08/13 11:58:40;;;;;;;6.63;1.60;;;;;;;;;;5041964;28;20041;-64
2023/08/13 12:01:07;;;;;;;5.55;1.65;;;;;;;;;;5034618;28;21378;-64
2023/08/13 12:03:36;;;;;;;7.05;1.73;;;;;;;;;;5035875;28;20037;-64
2023/08/13 12:06:02;;;;;;;8.43;1.70;;;;;;;;;;5033387;28;20035;-64
2023/08/13 12:08:28;;;;;;;6.68;2.00;;;;;;;;;;5041136;28;20025;-64
2023/08/13 12:10:54;;;;;;;7.85;1.60;;;;;;;;;;5034466;28;20029;-64
2023/08/13 12:13:20;;;;;;;7.15;1.63;;;;;;;;;;5040809;28;20035;-64
2023/08/13 12:15:46;;;;;;;7.30;1.65;;;;;;;;;;5033565;28;20035;-64
2023/08/13 12:18:12;;;;;;;5.70;1.40;;;;;;;;;;5040222;28;20195;-64
2023/08/13 12:20:39;;;;;;;6.40;1.75;;;;;;;;;;5033769;28;20040;-64
2023/08/13 12:23:05;;;;;;;5.30;1.40;;;;;;;;;;5038683;28;20029;-64
2023/08/13 12:25:31;;;;;;;7.22;1.88;;;;;;;;;;5027936;28;21872;-64
2023/08/13 12:27:57;;;;;;;6.80;1.55;;;;;;;;;;5040151;28;20033;-64
2023/08/13 12:30:24;;;;;;;6.53;1.77;;;;;;;;;;5027554;28;20024;-64
2023/08/13 12:32:50;;;;;;;4.85;1.50;;;;;;;;;;5041073;28;20081;-64
2023/08/13 12:35:16;;;;;;;6.68;1.60;;;;;;;;;;5033690;28;20167;-64
2023/08/13 12:37:42;;;;;;;5.88;1.50;;;;;;;;;;5040215;28;20092;-64
2023/08/13 12:40:11;;;;;;;6.70;1.63;;;;;;;;;;5027198;28;20123;-64
2023/08/13 12:42:38;;;;;;;7.60;1.38;;;;;;;;;;5039911;28;21314;-64
2023/08/13 12:45:05;;;;;;;2.65;1.10;;;;;;;;;;5025972;28;20641;-64
2023/08/13 12:47:32;;;;;;;5.00;1.40;;;;;;;;;;5039753;28;20029;-64
2023/08/13 12:49:58;;;;;;;12.40;2.10;;;;;;;;;;5033327;28;21837;-63
2023/08/13 12:52:24;;;;;;;6.20;1.25;;;;;;;;;;5040172;28;20411;-64
2023/08/13 12:54:50;;;;;;;3.55;0.90;;;;;;;;;;5031247;28;20024;-64
2023/08/13 12:57:16;;;;;;;5.18;1.40;;;;;;;;;;5040918;28;20025;-64
2023/08/13 12:59:42;;;;;;;4.72;0.98;;;;;;;;;;5033490;28;20040;-64
2023/08/13 13:02:08;;;;;;;7.40;1.77;;;;;;;;;;5040833;28;20066;-64
2023/08/13 13:04:34;;;;;;;5.13;1.30;;;;;;;;;;5028219;28;20042;-64
2023/08/13 13:07:00;;;;;;;4.25;1.05;;;;;;;;;;5038617;28;20091;-64
2023/08/13 13:09:26;;;;;;;4.55;1.40;;;;;;;;;;5033890;28;20039;-64
2023/08/13 13:11:56;;;;;;;3.47;1.45;;;;;;;;;;5039862;28;20047;-64
2023/08/13 13:14:22;;;;;;;4.63;1.65;;;;;;;;;;5036451;28;20108;-64
2023/08/13 13:16:50;;;;;;;4.70;1.27;;;;;;;;;;5037306;28;20114;-64
2023/08/13 13:19:17;;;;;;;5.20;1.63;;;;;;;;;;5030222;28;20743;-64
2023/08/13 13:21:43;;;;;;;5.88;1.20;;;;;;;;;;5036210;28;20135;-64
2023/08/13 13:24:09;;;;;;;5.50;1.10;;;;;;;;;;5030714;28;20035;-64
2023/08/13 13:26:36;;;;;;;4.53;1.00;;;;;;;;;;5035992;28;20072;-64
2023/08/13 13:29:02;;;;;;;5.15;1.80;;;;;;;;;;5037396;28;20033;-64
2023/08/13 13:31:28;;;;;;;5.10;1.52;;;;;;;;;;5034944;28;20094;-64
2023/08/13 13:33:54;;;;;;;5.63;1.40;;;;;;;;;;5038995;28;20029;-64
2023/08/13 13:36:21;;;;;;;4.65;1.25;;;;;;;;;;5033410;28;20041;-64
2023/08/13 13:38:47;;;;;;;5.43;1.73;;;;;;;;;;5040531;28;20916;-64
2023/08/13 13:41:13;;;;;;;5.15;1.33;;;;;;;;;;5032352;28;20032;-64
2023/08/13 13:43:39;;;;;;;8.77;1.50;;;;;;;;;;5040010;28;20131;-64
2023/08/13 13:46:05;;;;;;;5.25;1.38;;;;;;;;;;5032602;28;20747;-64
2023/08/13 13:48:31;;;;;;;5.43;1.27;;;;;;;;;;5039877;28;20495;-64
2023/08/13 13:50:59;;;;;;;3.63;1.00;;;;;;;;;;5031837;28;20866;-64
2023/08/13 13:53:25;;;;;;;7.72;1.70;;;;;;;;;;5040803;28;20025;-64
2023/08/13 13:55:51;;;;;;;3.45;1.15;;;;;;;;;;5032452;28;20041;-64
2023/08/13 13:58:17;;;;;;;4.95;1.35;;;;;;;;;;5039403;28;20110;-64
2023/08/13 14:00:44;;;;;;;3.92;1.00;;;;;;;;;;5032846;28;20029;-64
2023/08/13 14:03:10;;;;;;;6.43;1.25;;;;;;;;;;5039298;28;20395;-64
2023/08/13 14:05:37;;;;;;;3.60;1.33;;;;;;;;;;5032548;28;20028;-64
2023/08/13 14:08:03;;;;;;;4.55;1.20;;;;;;;;;;5038810;28;20056;-64
2023/08/13 14:10:29;;;;;;;5.50;1.30;;;;;;;;;;5031710;28;20025;-64
2023/08/13 14:12:55;;;;;;;5.82;1.40;;;;;;;;;;5039107;28;20052;-64
2023/08/13 14:15:21;;;;;;;5.65;1.35;;;;;;;;;;5031467;28;20040;-64
2023/08/13 14:17:47;;;;;;;6.50;1.60;;;;;;;;;;5039331;28;20068;-64
2023/08/13 14:20:13;;;;;;;6.75;1.80;;;;;;;;;;5036846;28;20097;-64
2023/08/13 14:22:39;;;;;;;7.25;1.52;;;;;;;;;;5039093;28;20041;-64
2023/08/13 14:25:05;;;;;;;6.32;1.85;;;;;;;;;;5038942;28;20113;-64
2023/08/13 14:27:32;;;;;;;5.88;1.55;;;;;;;;;;5038888;28;20057;-64
2023/08/13 14:29:58;;;;;;;5.90;1.25;;;;;;;;;;5021090;28;20044;-64
2023/08/13 14:32:25;;;;;;;13.85;2.22;;;;;;;;;;5037843;28;20032;-64
2023/08/13 14:34:51;;;;;;;7.28;1.90;;;;;;;;;;5039469;28;20042;-64